Time;durP1;ratioP1;P1;durP2;ratioP2;P2;SDS_P1;SDS_P2;PMS_P1;PMS_P2;Temp;Humidity;BMP_temperature;BMP_pressure;BME280_temperature;BME280_humidity;BME280_pressure;Samples;Min_cycle;Max_cycle;Signal;HPM_P1;HPM_P2
2022/10/28 00:02:01;;;;;;;18.17;9.38;;;;;;;23.45;100.00;101607.81;5007497;28;20038;-48
2022/10/28 00:04:26;;;;;;;26.92;9.65;;;;;;;23.24;100.00;101604.91;5003395;28;20102;-50
2022/10/28 00:06:52;;;;;;;25.83;9.13;;;;;;;23.39;100.00;101606.13;5008446;28;20041;-49
2022/10/28 00:09:17;;;;;;;25.27;10.50;;;;;;;23.33;100.00;101603.38;5005546;28;20045;-50
2022/10/28 00:11:43;;;;;;;21.77;9.97;;;;;;;23.31;100.00;101594.63;5007430;28;20050;-50
2022/10/28 00:14:08;;;;;;;22.23;9.70;;;;;;;23.27;100.00;101604.41;5010292;28;20294;-52
2022/10/28 00:16:36;;;;;;;23.52;10.32;;;;;;;23.49;100.00;101607.00;5001879;28;20098;-50
2022/10/28 00:19:03;;;;;;;26.13;10.23;;;;;;;23.46;100.00;101598.53;5008566;28;20043;-49
2022/10/28 00:21:32;;;;;;;25.07;10.87;;;;;;;23.41;100.00;101599.34;5010080;28;20038;-53
2022/10/28 00:23:58;;;;;;;27.50;10.00;;;;;;;23.33;100.00;101603.38;5001042;28;20035;-52
2022/10/28 00:26:26;;;;;;;25.95;10.70;;;;;;;23.22;100.00;101590.72;5016223;28;20096;-50
2022/10/28 00:28:57;;;;;;;25.27;10.53;;;;;;;23.35;100.00;101594.91;5005137;28;20058;-48
2022/10/28 00:31:25;;;;;;;23.40;10.57;;;;;;;23.24;100.00;101596.72;5009286;28;20056;-51
2022/10/28 00:33:52;;;;;;;22.70;10.57;;;;;;;22.97;100.00;101594.91;5007387;28;20031;-49
2022/10/28 00:36:24;;;;;;;33.78;11.30;;;;;;;23.47;100.00;101592.81;5005139;28;20041;-51
2022/10/28 00:38:51;;;;;;;31.00;9.50;;;;;;;23.42;100.00;101594.69;5018424;28;20040;-51
2022/10/28 00:41:20;;;;;;;31.10;10.73;;;;;;;23.43;100.00;101582.69;5006910;28;20031;-54
2022/10/28 00:43:52;;;;;;;20.90;10.57;;;;;;;23.27;100.00;101590.78;5003784;28;20042;-52
2022/10/28 00:46:29;;;;;;;27.27;10.23;;;;;;;23.12;100.00;101587.94;5009128;28;20054;-52
2022/10/28 00:49:16;;;;;;;27.38;10.13;;;;;;;23.15;100.00;101580.03;4996985;28;20036;-48
2022/10/28 00:51:44;;;;;;;26.43;10.30;;;;;;;23.06;100.00;101587.88;4998223;28;20050;-48
2022/10/28 00:54:10;;;;;;;21.73;10.57;;;;;;;23.21;100.00;101580.88;5014937;28;20056;-53
2022/10/28 00:56:37;;;;;;;;;;;;;;;22.68;100.00;101581.59;5006321;28;20069;-52
2022/10/28 00:59:07;;;;;;;20.92;10.93;;;;;;;22.60;100.00;101573.88;5007145;28;19965;-53
2022/10/28 01:01:33;;;;;;;21.30;10.60;;;;;;;22.49;100.00;101568.34;5002431;28;20082;-50
2022/10/28 01:03:59;;;;;;;28.15;11.30;;;;;;;22.70;100.00;101565.78;5016106;28;20027;-52
2022/10/28 01:06:27;;;;;;;23.08;11.73;;;;;;;22.76;100.00;101556.56;5010312;28;20042;-51
2022/10/28 01:08:52;;;;;;;23.83;10.70;;;;;;;22.53;100.00;101559.63;5004693;28;20031;-52
2022/10/28 01:11:26;;;;;;;25.85;11.70;;;;;;;22.73;100.00;101554.38;5000368;28;20041;-51
2022/10/28 01:14:00;;;;;;;20.87;10.07;;;;;;;22.10;100.00;101554.84;4999131;28;20031;-50
2022/10/28 01:16:52;;;;;;;28.57;9.97;;;;;;;22.47;100.00;101548.69;5004327;28;20073;-45
2022/10/28 01:19:52;;;;;;;24.80;10.23;;;;;;;22.22;100.00;101545.69;5015004;28;20118;-49
2022/10/28 01:22:28;;;;;;;20.93;11.07;;;;;;;22.68;100.00;101548.88;5001422;28;20046;-48
2022/10/28 01:25:05;;;;;;;26.30;10.40;;;;;;;22.28;100.00;101544.66;5000066;28;20171;-49
2022/10/28 01:27:54;;;;;;;27.03;11.23;;;;;;;22.74;100.00;101547.81;5005220;28;20091;-47
2022/10/28 01:30:23;;;;;;;23.67;10.10;;;;;;;23.09;100.00;101547.53;5002759;28;20057;-54
2022/10/28 01:33:05;;;;;;;21.00;10.43;;;;;;;22.73;100.00;101543.47;5007476;28;20275;-53
2022/10/28 01:35:48;;;;;;;22.17;10.67;;;;;;;22.66;100.00;101542.88;5012089;28;20045;-50
2022/10/28 01:38:35;;;;;;;25.63;11.17;;;;;;;22.67;100.00;101530.03;5000249;28;20034;-49
2022/10/28 01:41:16;;;;;;;29.65;10.55;;;;;;;22.82;100.00;101537.50;5005174;28;20035;-51
2022/10/28 01:43:53;;;;;;;26.23;11.57;;;;;;;22.95;100.00;101537.06;5004875;28;20050;-51
2022/10/28 01:46:26;;;;;;;27.43;11.30;;;;;;;22.76;100.00;101532.03;5007923;28;20038;-51
2022/10/28 01:49:12;;;;;;;25.43;11.10;;;;;;;22.96;100.00;101530.53;5012110;28;20045;-52
2022/10/28 01:51:45;;;;;;;29.87;9.83;;;;;;;22.91;100.00;101531.31;5001394;28;20084;-49
2022/10/28 01:54:14;;;;;;;27.00;10.17;;;;;;;22.53;100.00;101525.03;5011127;28;20038;-50
2022/10/28 01:56:43;;;;;;;26.80;10.23;;;;;;;22.65;100.00;101526.75;5002719;28;20069;-49
2022/10/28 01:59:15;;;;;;;20.77;10.10;;;;;;;22.49;100.00;101524.72;5008236;28;20036;-51
2022/10/28 02:01:40;;;;;;;20.13;10.07;;;;;;;22.83;100.00;101522.78;5002646;28;20458;-51
2022/10/28 02:04:06;;;;;;;23.40;10.98;;;;;;;22.77;100.00;101519.22;5008111;28;20035;-52
2022/10/28 02:06:33;;;;;;;24.13;10.75;;;;;;;22.83;100.00;101510.00;5009244;28;20038;-54
2022/10/28 02:09:08;;;;;;;27.10;10.37;;;;;;;22.73;100.00;101512.66;5004613;28;20031;-49
2022/10/28 02:11:59;;;;;;;18.13;9.40;;;;;;;22.75;100.00;101507.75;5015304;28;20173;-50
2022/10/28 02:14:27;;;;;;;22.43;10.27;;;;;;;22.61;100.00;101510.94;5014243;28;20044;-51
2022/10/28 02:17:05;;;;;;;24.80;10.70;;;;;;;22.84;100.00;101513.56;4999747;28;20039;-49
2022/10/28 02:20:02;;;;;;;23.07;10.70;;;;;;;22.83;100.00;101512.72;4997397;28;20039;-48
2022/10/28 02:22:50;;;;;;;24.13;11.20;;;;;;;22.86;100.00;101517.66;4998203;28;20041;-50
2022/10/28 02:25:32;;;;;;;21.07;9.70;;;;;;;22.96;100.00;101529.72;5008350;28;20046;-52
2022/10/28 02:28:06;;;;;;;21.60;10.67;;;;;;;22.65;100.00;101522.13;5012589;28;20038;-52
2022/10/28 02:30:47;;;;;;;26.50;10.17;;;;;;;22.76;100.00;101512.94;4999895;28;20038;-50
2022/10/28 02:33:18;;;;;;;25.53;11.07;;;;;;;22.66;100.00;101509.31;4997013;28;20041;-50
2022/10/28 02:35:50;;;;;;;34.17;12.13;;;;;;;22.72;100.00;101514.56;5003873;28;20031;-48
2022/10/28 02:38:22;;;;;;;29.63;10.33;;;;;;;22.67;100.00;101508.22;5004547;28;20057;-52
2022/10/28 02:40:52;;;;;;;28.20;10.80;;;;;;;22.45;100.00;101507.22;5007308;28;20031;-50
2022/10/28 02:43:21;;;;;;;27.83;10.47;;;;;;;22.63;100.00;101507.94;5003517;28;20045;-50
2022/10/28 02:45:51;;;;;;;29.27;11.00;;;;;;;22.26;100.00;101508.69;5004290;28;20027;-52
2022/10/28 02:48:27;;;;;;;30.00;11.10;;;;;;;22.29;100.00;101508.16;5009391;28;20094;-50
2022/10/28 02:50:59;;;;;;;27.30;10.17;;;;;;;22.14;100.00;101504.22;5008659;28;20039;-50
2022/10/28 02:53:37;;;;;;;29.10;10.30;;;;;;;22.25;100.00;101507.03;5012660;28;20035;-52
2022/10/28 02:56:06;;;;;;;25.63;10.23;;;;;;;21.84;100.00;101510.19;5012434;28;20031;-51
2022/10/28 02:58:39;;;;;;;26.37;10.40;;;;;;;22.18;100.00;101512.69;5004647;28;20098;-49
2022/10/28 03:01:06;;;;;;;22.13;10.47;;;;;;;22.20;100.00;101510.53;5009638;28;20030;-50
2022/10/28 03:03:31;;;;;;;23.63;10.35;;;;;;;22.13;100.00;101508.00;5005400;28;20038;-49
2022/10/28 03:05:57;;;;;;;23.63;10.18;;;;;;;22.03;100.00;101505.19;5014186;28;20070;-48
2022/10/28 03:08:24;;;;;;;32.70;10.73;;;;;;;21.77;100.00;101496.75;5009564;28;20038;-52
2022/10/28 03:10:50;;;;;;;27.00;11.73;;;;;;;22.10;100.00;101497.63;5005255;28;20061;-50
2022/10/28 03:13:15;;;;;;;24.13;10.73;;;;;;;21.94;100.00;101491.22;5008753;28;20030;-47
2022/10/28 03:15:41;;;;;;;22.35;10.73;;;;;;;21.67;100.00;101489.31;5002524;28;20072;-49
2022/10/28 03:18:07;;;;;;;23.23;9.73;;;;;;;21.86;100.00;101489.78;5013655;28;20047;-50
2022/10/28 03:20:33;;;;;;;;;;;;;;;21.87;100.00;101491.41;5008164;28;20046;-52
2022/10/28 03:22:58;;;;;;;19.50;9.87;;;;;;;21.90;100.00;101492.81;5008239;28;19957;-49
2022/10/28 03:25:24;;;;;;;22.33;10.90;;;;;;;22.34;100.00;101495.41;5001446;28;20106;-52
2022/10/28 03:27:49;;;;;;;30.03;10.60;;;;;;;21.80;100.00;101490.81;5008488;28;20034;-51
2022/10/28 03:30:17;;;;;;;21.48;9.73;;;;;;;21.81;100.00;101492.44;4999837;28;20139;-49
2022/10/28 03:32:42;;;;;;;26.20;10.33;;;;;;;21.79;100.00;101494.59;5008453;28;20067;-47
2022/10/28 03:35:09;;;;;;;31.00;9.75;;;;;;;22.03;100.00;101486.97;5017892;28;20030;-48
2022/10/28 03:37:34;;;;;;;21.73;10.25;;;;;;;21.66;100.00;101484.94;5011014;28;20168;-48
2022/10/28 03:40:01;;;;;;;20.02;9.95;;;;;;;21.32;100.00;101485.03;5000434;28;20099;-51
2022/10/28 03:42:27;;;;;;;25.00;10.87;;;;;;;21.49;100.00;101479.53;5013690;28;20038;-52
2022/10/28 03:44:53;;;;;;;28.75;10.27;;;;;;;22.00;100.00;101487.47;5007331;28;20054;-50
2022/10/28 03:47:18;;;;;;;25.25;10.48;;;;;;;21.76;100.00;101490.47;5008503;28;20038;-51
2022/10/28 03:49:44;;;;;;;15.85;8.15;;;;;;;21.94;100.00;101479.53;5010213;28;20084;-50
2022/10/28 03:52:09;;;;;;;22.27;9.55;;;;;;;22.18;100.00;101483.56;4983286;28;20055;-50
2022/10/28 03:54:35;;;;;;;19.07;8.77;;;;;;;21.92;100.00;101477.88;4990157;28;20039;-48
2022/10/28 03:57:00;;;;;;;19.17;8.95;;;;;;;21.83;100.00;101471.22;4986681;28;20070;-47
2022/10/28 03:59:26;;;;;;;27.67;9.25;;;;;;;21.66;100.00;101462.31;4988325;28;20054;-47
2022/10/28 04:01:51;;;;;;;24.75;8.90;;;;;;;21.90;100.00;101463.66;4989425;28;20045;-53
2022/10/28 04:04:17;;;;;;;22.33;8.38;;;;;;;22.06;100.00;101461.09;4981211;28;20050;-49
2022/10/28 04:06:42;;;;;;;20.20;8.63;;;;;;;21.99;100.00;101468.66;4982839;28;20038;-49
2022/10/28 04:09:08;;;;;;;28.23;8.00;;;;;;;22.35;100.00;101467.09;4992571;28;20042;-47
2022/10/28 04:11:33;;;;;;;21.47;7.97;;;;;;;22.52;100.00;101468.06;4982745;28;20156;-52
2022/10/28 04:13:59;;;;;;;23.20;8.53;;;;;;;22.45;100.00;101469.09;4991025;28;20037;-52
2022/10/28 04:16:25;;;;;;;18.83;7.65;;;;;;;22.21;100.00;101479.50;4994557;28;20031;-48
2022/10/28 04:18:50;;;;;;;14.82;7.03;;;;;;;22.18;100.00;101469.94;4982998;28;20035;-46
2022/10/28 04:21:16;;;;;;;17.10;6.85;;;;;;;21.73;100.00;101476.56;4993685;28;20033;-47
2022/10/28 04:23:41;;;;;;;20.23;7.25;;;;;;;21.99;100.00;101479.56;4981309;28;20031;-55
2022/10/28 04:26:07;;;;;;;17.88;8.05;;;;;;;22.25;100.00;101485.25;4986920;28;20039;-51
2022/10/28 04:28:32;;;;;;;16.70;7.60;;;;;;;22.19;100.00;101476.19;4989169;28;20045;-48
2022/10/28 04:30:58;;;;;;;22.05;8.15;;;;;;;22.35;100.00;101474.44;4981893;28;20270;-47
2022/10/28 04:33:23;;;;;;;17.30;7.32;;;;;;;22.16;100.00;101483.00;4979030;28;20069;-49
2022/10/28 04:35:48;;;;;;;18.47;7.83;;;;;;;22.22;100.00;101483.84;4989177;28;20149;-48
2022/10/28 04:38:14;;;;;;;21.27;8.38;;;;;;;22.35;100.00;101480.72;4978667;28;20039;-49
2022/10/28 04:40:40;;;;;;;26.90;8.32;;;;;;;22.47;100.00;101479.72;4991325;28;20055;-49
2022/10/28 04:43:06;;;;;;;18.95;7.78;;;;;;;22.17;100.00;101479.19;4986201;28;20035;-52
2022/10/28 04:45:31;;;;;;;20.05;7.53;;;;;;;22.50;100.00;101479.25;4988970;28;20104;-52
2022/10/28 04:48:00;;;;;;;16.17;8.05;;;;;;;22.52;100.00;101478.97;4987923;28;20035;-49
2022/10/28 04:50:26;;;;;;;16.57;7.57;;;;;;;22.17;100.00;101473.75;4988609;28;20035;-49
2022/10/28 04:52:52;;;;;;;;;;;;;;;21.92;100.00;101477.88;5001539;28;20061;-49
2022/10/28 04:55:19;;;;;;;26.57;9.10;;;;;;;21.75;100.00;101477.16;4997328;28;19914;-50
2022/10/28 04:57:55;;;;;;;31.93;8.90;;;;;;;21.86;100.00;101473.44;5008134;28;20753;-49
2022/10/28 05:00:21;;;;;;;20.83;8.45;;;;;;;21.48;100.00;101472.47;4997032;28;20018;-50
2022/10/28 05:02:47;;;;;;;15.73;7.22;;;;;;;22.24;100.00;101467.25;5015224;28;20030;-49
2022/10/28 05:05:13;;;;;;;23.70;8.85;;;;;;;21.87;100.00;101471.56;4997733;28;20049;-53
2022/10/28 05:07:38;;;;;;;26.75;8.23;;;;;;;21.61;100.00;101468.53;5016705;28;20028;-53
2022/10/28 05:10:05;;;;;;;26.27;9.13;;;;;;;21.39;100.00;101463.91;4996377;28;20035;-47
2022/10/28 05:12:31;;;;;;;22.13;7.68;;;;;;;21.84;100.00;101469.34;5001267;28;20043;-47
2022/10/28 05:14:56;;;;;;;17.15;7.22;;;;;;;21.63;100.00;101460.91;5005287;28;20027;-48
2022/10/28 05:17:22;;;;;;;21.15;7.78;;;;;;;21.41;100.00;101460.91;5000430;28;20102;-51
2022/10/28 05:19:47;;;;;;;21.73;8.25;;;;;;;21.41;100.00;101452.75;5013207;28;20046;-49
2022/10/28 05:22:13;;;;;;;27.73;7.82;;;;;;;21.69;100.00;101464.56;5004679;28;20030;-49
2022/10/28 05:24:38;;;;;;;26.40;9.45;;;;;;;21.39;100.00;101454.91;5002462;28;20085;-51
2022/10/28 05:27:04;;;;;;;19.60;7.80;;;;;;;21.38;100.00;101458.72;5006999;28;20145;-52
2022/10/28 05:29:29;;;;;;;21.65;8.05;;;;;;;21.45;100.00;101446.56;5011186;28;20112;-53
2022/10/28 05:31:55;;;;;;;22.33;8.95;;;;;;;21.38;100.00;101450.56;4998614;28;20035;-50
2022/10/28 05:34:20;;;;;;;18.07;8.07;;;;;;;21.37;100.00;101447.03;5011070;28;20059;-48
2022/10/28 05:36:46;;;;;;;16.83;8.73;;;;;;;21.78;100.00;101454.84;5011629;28;20062;-48
2022/10/28 05:39:12;;;;;;;26.92;8.88;;;;;;;21.66;100.00;101451.44;5001019;28;20045;-49
2022/10/28 05:41:38;;;;;;;20.83;8.30;;;;;;;22.14;100.00;101452.44;4994654;28;20061;-49
2022/10/28 05:44:04;;;;;;;22.33;7.65;;;;;;;21.83;100.00;101465.78;5009413;28;20035;-52
2022/10/28 05:46:30;;;;;;;18.98;8.52;;;;;;;21.87;100.00;101458.75;5000771;28;20046;-49
2022/10/28 05:48:55;;;;;;;20.90;8.30;;;;;;;21.78;100.00;101450.22;5008781;28;20035;-50
2022/10/28 05:51:21;;;;;;;27.77;7.20;;;;;;;21.87;100.00;101452.50;4967862;28;1013190;-48
2022/10/28 05:53:49;;;;;;;20.45;7.45;;;;;;;21.53;100.00;101453.47;5005019;28;20058;-47
2022/10/28 05:56:16;;;;;;;14.20;6.63;;;;;;;21.70;100.00;101442.50;5007055;28;20045;-51
2022/10/28 05:58:42;;;;;;;19.87;7.13;;;;;;;21.82;100.00;101450.53;5004263;28;20324;-47
2022/10/28 06:01:08;;;;;;;19.98;7.75;;;;;;;21.45;100.00;101454.72;5004547;28;20027;-48
2022/10/28 06:03:34;;;;;;;27.85;7.82;;;;;;;21.22;100.00;101447.66;5005945;28;20106;-49
2022/10/28 06:05:59;;;;;;;18.70;6.65;;;;;;;21.42;100.00;101446.25;5004916;28;20035;-48
2022/10/28 06:08:26;;;;;;;23.48;7.45;;;;;;;21.56;100.00;101452.13;5012232;28;20065;-48
2022/10/28 06:10:53;;;;;;;17.13;8.05;;;;;;;21.67;100.00;101453.91;5002022;28;20038;-48
2022/10/28 06:13:20;;;;;;;24.33;8.20;;;;;;;21.45;100.00;101449.28;5007197;28;20038;-51
2022/10/28 06:15:54;;;;;;;13.10;6.13;;;;;;;21.35;100.00;101452.69;5010796;28;20260;-49
2022/10/28 06:18:21;;;;;;;21.67;7.60;;;;;;;21.42;100.00;101443.53;4999861;28;20045;-50
2022/10/28 06:20:54;;;;;;;19.60;6.83;;;;;;;21.13;100.00;101446.44;4996927;28;20264;-47
2022/10/28 06:23:20;;;;;;;22.50;7.20;;;;;;;21.18;100.00;101462.81;5002148;28;20094;-48
2022/10/28 06:25:46;;;;;;;;;;;;;;;21.51;100.00;101461.06;5000498;28;20298;-49
2022/10/28 06:28:11;;;;;;;23.03;7.67;;;;;;;21.81;100.00;101458.97;5013351;28;19949;-49
2022/10/28 06:30:37;;;;;;;20.80;7.90;;;;;;;21.66;100.00;101459.59;5005084;28;20046;-48
2022/10/28 06:33:03;;;;;;;19.23;7.38;;;;;;;21.87;100.00;101475.06;5001371;28;20086;-46
2022/10/28 06:35:28;;;;;;;15.20;7.25;;;;;;;22.42;100.00;101475.06;5007401;28;20041;-51
2022/10/28 06:37:55;;;;;;;16.03;7.27;;;;;;;22.05;100.00;101470.34;5004787;28;20043;-52
2022/10/28 06:40:20;;;;;;;;;;;;;;;21.70;100.00;101466.22;5012830;28;20034;-48
2022/10/28 06:42:46;;;;;;;18.50;7.40;;;;;;;21.87;100.00;101471.56;5004346;28;19936;-51
2022/10/28 06:45:11;;;;;;;14.47;6.37;;;;;;;21.56;100.00;101473.88;4999545;28;20045;-50
2022/10/28 06:47:37;;;;;;;27.75;8.25;;;;;;;21.68;100.00;101477.34;5002159;28;20056;-48
2022/10/28 06:50:02;;;;;;;32.20;6.60;;;;;;;21.16;100.00;101473.97;5007819;28;20039;-50
2022/10/28 06:52:28;;;;;;;17.63;6.97;;;;;;;21.12;100.00;101474.69;5004861;28;20362;-49
2022/10/28 06:54:54;;;;;;;19.83;6.53;;;;;;;21.45;100.00;101471.06;5010116;28;20043;-49
2022/10/28 06:57:19;;;;;;;20.90;7.18;;;;;;;21.46;100.00;101469.97;5012362;28;20045;-48
2022/10/28 06:59:45;;;;;;;14.73;6.30;;;;;;;21.33;100.00;101471.19;5001637;28;20065;-49
2022/10/28 07:02:11;;;;;;;19.80;6.63;;;;;;;21.11;100.00;101467.63;4997475;28;20039;-51
2022/10/28 07:04:36;;;;;;;26.10;7.30;;;;;;;21.26;100.00;101481.44;5008675;28;20031;-51
2022/10/28 07:07:02;;;;;;;19.45;6.40;;;;;;;21.73;100.00;101477.38;4999891;28;20082;-49
2022/10/28 07:09:28;;;;;;;17.30;7.82;;;;;;;21.69;100.00;101480.91;5015250;28;20114;-50
2022/10/28 07:11:53;;;;;;;20.63;7.00;;;;;;;21.74;100.00;101486.38;5002835;28;20050;-51
2022/10/28 07:14:19;;;;;;;29.30;7.28;;;;;;;21.63;100.00;101477.25;5008974;28;20023;-49
2022/10/28 07:16:44;;;;;;;25.92;6.88;;;;;;;21.44;100.00;101476.72;5008132;28;20094;-55
2022/10/28 07:19:09;;;;;;;19.50;7.30;;;;;;;21.86;100.00;101478.06;5011860;28;20045;-52
2022/10/28 07:21:35;;;;;;;19.17;6.83;;;;;;;21.92;100.00;101480.59;5023613;28;20299;-50
2022/10/28 07:24:01;;;;;;;17.40;7.65;;;;;;;22.12;100.00;101479.13;5007518;28;20093;-48
2022/10/28 07:26:27;;;;;;;20.73;6.47;;;;;;;21.98;100.00;101486.91;5003068;28;20101;-49
2022/10/28 07:28:53;;;;;;;20.27;7.13;;;;;;;22.57;100.00;101485.28;5010037;28;20034;-49
2022/10/28 07:31:19;;;;;;;14.88;6.60;;;;;;;22.24;100.00;101484.41;5003494;28;20031;-54
2022/10/28 07:33:51;;;;;;;23.98;9.45;;;;;;;22.34;100.00;101486.41;5005525;28;20076;-53
2022/10/28 07:36:16;;;;;;;24.93;8.13;;;;;;;22.51;100.00;101490.94;5008358;28;20078;-51
2022/10/28 07:38:42;;;;;;;21.02;7.53;;;;;;;22.42;100.00;101491.41;5010282;28;20052;-50
2022/10/28 07:41:08;;;;;;;27.37;7.70;;;;;;;22.54;100.00;101490.41;4999798;28;20030;-52
2022/10/28 07:43:36;;;;;;;21.20;6.67;;;;;;;21.96;100.00;101489.06;5012990;28;20292;-53
2022/10/28 07:46:01;;;;;;;24.43;6.10;;;;;;;22.20;100.00;101488.75;5001621;28;20027;-51
2022/10/28 07:48:28;;;;;;;;;;;;;;;22.39;100.00;101497.38;5008333;28;20034;-50
2022/10/28 07:50:53;;;;;;;25.30;6.63;;;;;;;22.35;100.00;101490.78;5010418;28;20194;-50
2022/10/28 07:53:19;;;;;;;24.70;7.10;;;;;;;22.63;100.00;101486.16;5001131;28;20035;-51
2022/10/28 07:55:44;;;;;;;19.20;6.38;;;;;;;23.13;100.00;101500.34;5011819;28;20265;-50
2022/10/28 07:58:10;;;;;;;16.38;5.90;;;;;;;23.04;100.00;101497.28;5004348;28;20041;-52
2022/10/28 08:00:35;;;;;;;21.17;6.53;;;;;;;23.22;100.00;101500.69;4998333;28;20034;-50
2022/10/28 08:03:01;;;;;;;17.25;6.00;;;;;;;23.03;100.00;101497.56;5011168;28;20095;-49
2022/10/28 08:05:27;;;;;;;19.38;7.47;;;;;;;22.97;100.00;101502.19;5003885;28;20064;-52
2022/10/28 08:07:53;;;;;;;20.23;6.88;;;;;;;23.21;100.00;101501.75;5009205;28;20086;-53
2022/10/28 08:10:18;;;;;;;15.48;6.50;;;;;;;23.24;100.00;101503.97;5007144;28;20046;-49
2022/10/28 08:12:45;;;;;;;15.77;5.97;;;;;;;23.44;100.00;101499.72;4996737;28;20027;-47
2022/10/28 08:15:11;;;;;;;;;;;;;;;23.15;100.00;101502.81;5006722;28;20072;-48
2022/10/28 08:17:37;;;;;;;17.90;6.30;;;;;;;23.46;100.00;101497.53;5009074;28;19973;-52
2022/10/28 08:20:04;;;;;;;21.27;6.82;;;;;;;23.69;100.00;101499.00;4999664;28;20064;-49
2022/10/28 08:22:29;;;;;;;21.97;6.60;;;;;;;23.69;100.00;101498.16;5009556;28;20068;-51
2022/10/28 08:24:55;;;;;;;19.08;6.68;;;;;;;23.60;100.00;101493.22;5006871;28;20067;-48
2022/10/28 08:27:20;;;;;;;20.23;6.55;;;;;;;24.30;100.00;101493.94;5006457;28;20110;-49
2022/10/28 08:29:46;;;;;;;22.87;6.83;;;;;;;23.96;100.00;101505.31;5011826;28;20028;-52
2022/10/28 08:32:11;;;;;;;18.30;7.18;;;;;;;24.16;100.00;101508.13;5001160;28;20355;-49
2022/10/28 08:34:37;;;;;;;18.02;6.65;;;;;;;24.41;100.00;101517.44;5001300;28;20118;-49
2022/10/28 08:37:02;;;;;;;14.65;6.15;;;;;;;24.87;100.00;101513.91;5014100;28;20059;-50
2022/10/28 08:39:28;;;;;;;18.52;6.53;;;;;;;25.29;100.00;101520.06;5003789;28;20054;-49
2022/10/28 08:42:18;;;;;;;30.50;7.95;;;;;;;24.96;100.00;101516.06;5006451;28;20038;-51
2022/10/28 08:45:13;;;;;;;17.73;6.17;;;;;;;25.51;100.00;101518.94;5003720;28;20047;-50
2022/10/28 08:48:04;;;;;;;16.70;6.47;;;;;;;26.19;100.00;101517.47;4997131;28;20047;-51
2022/10/28 08:50:36;;;;;;;23.33;6.90;;;;;;;26.53;100.00;101526.00;5007671;28;20038;-53
2022/10/28 08:53:12;;;;;;;19.30;6.60;;;;;;;27.11;100.00;101527.09;5000559;28;20049;-53
2022/10/28 08:55:43;;;;;;;21.33;6.30;;;;;;;27.14;100.00;101521.84;5016427;28;20047;-54
2022/10/28 08:58:24;;;;;;;14.83;6.03;;;;;;;27.43;100.00;101520.13;4998841;28;20272;-50
2022/10/28 09:00:53;;;;;;;21.97;6.30;;;;;;;28.38;100.00;101519.38;5005331;28;20035;-53
2022/10/28 09:03:25;;;;;;;17.00;5.33;;;;;;;28.40;100.00;101517.16;4999183;28;20054;-52
2022/10/28 09:06:03;;;;;;;20.50;5.67;;;;;;;28.34;100.00;101518.31;4995354;28;20039;-54
2022/10/28 09:08:36;;;;;;;19.33;6.10;;;;;;;27.83;100.00;101506.97;5007498;28;20045;-53
2022/10/28 09:11:17;;;;;;;19.97;6.50;;;;;;;27.59;100.00;101518.84;5003510;28;20032;-53
2022/10/28 09:13:42;;;;;;;20.17;5.60;;;;;;;26.88;100.00;101516.66;4996277;28;20139;-52
2022/10/28 09:16:35;;;;;;;17.15;5.63;;;;;;;26.51;100.00;101528.19;5008680;28;20098;-54
2022/10/28 09:19:13;;;;;;;17.37;5.47;;;;;;;26.40;100.00;101522.78;5001108;28;20102;-53
2022/10/28 09:21:47;;;;;;;15.57;5.50;;;;;;;26.09;100.00;101503.81;5004609;28;20096;-53
2022/10/28 09:24:19;;;;;;;19.67;6.37;;;;;;;26.72;100.00;101520.59;5003236;28;20022;-51
2022/10/28 09:27:02;;;;;;;14.07;5.80;;;;;;;27.27;100.00;101525.00;4996421;28;20031;-54
2022/10/28 09:29:43;;;;;;;21.37;6.20;;;;;;;27.95;100.00;101523.03;5005559;28;20062;-54
2022/10/28 09:32:24;;;;;;;21.87;6.07;;;;;;;27.62;100.00;101518.25;4996252;28;20039;-54
2022/10/28 09:35:02;;;;;;;15.97;5.33;;;;;;;27.19;100.00;101526.44;5010991;28;20031;-54
2022/10/28 09:37:37;;;;;;;14.60;5.67;;;;;;;26.60;100.00;101531.97;5008007;28;20026;-55
2022/10/28 09:40:14;;;;;;;21.83;5.60;;;;;;;26.12;100.00;101522.44;4999396;28;20046;-50
2022/10/28 09:42:46;;;;;;;15.23;5.67;;;;;;;26.82;100.00;101525.97;5004768;28;20030;-51
2022/10/28 09:45:24;;;;;;;16.90;6.13;;;;;;;27.08;100.00;101533.19;5003665;28;20034;-52
2022/10/28 09:47:57;;;;;;;21.63;6.20;;;;;;;27.85;100.00;101528.69;5009988;28;20038;-53
2022/10/28 09:50:30;;;;;;;13.47;5.03;;;;;;;27.91;100.00;101533.81;5009277;28;20041;-52
2022/10/28 09:53:15;;;;;;;23.80;6.10;;;;;;;27.80;100.00;101535.06;4999589;28;20057;-52
2022/10/28 09:55:42;;;;;;;18.93;5.40;;;;;;;28.00;100.00;101535.88;5012540;28;20053;-53
2022/10/28 09:58:10;;;;;;;14.67;5.40;;;;;;;27.50;100.00;101531.59;5001968;28;20103;-48
2022/10/28 10:00:37;;;;;;;18.30;5.50;;;;;;;28.12;100.00;101528.00;5006363;28;20067;-51
2022/10/28 10:03:03;;;;;;;27.93;5.60;;;;;;;28.37;100.00;101531.47;5006339;28;20046;-47
2022/10/28 10:05:32;;;;;;;16.02;5.55;;;;;;;29.16;100.00;101535.31;5001769;28;20034;-49
2022/10/28 10:08:02;;;;;;;19.27;5.77;;;;;;;29.25;100.00;101540.13;5005622;28;20042;-48
2022/10/28 10:10:42;;;;;;;20.33;5.27;;;;;;;30.11;95.37;101540.56;5000048;28;20026;-49
2022/10/28 10:13:08;;;;;;;16.17;5.27;;;;;;;29.67;97.31;101548.38;5011497;28;20037;-51
2022/10/28 10:15:43;;;;;;;17.17;4.75;;;;;;;29.44;98.12;101543.63;5007696;28;20035;-49
2022/10/28 10:18:16;;;;;;;14.50;5.30;;;;;;;29.45;99.14;101539.75;5002036;28;20038;-53
2022/10/28 10:20:51;;;;;;;21.50;5.23;;;;;;;29.95;95.47;101534.53;4996460;28;20043;-49
2022/10/28 10:23:22;;;;;;;21.33;5.15;;;;;;;30.81;91.38;101529.97;5007792;28;20038;-52
2022/10/28 10:25:53;;;;;;;11.30;4.50;;;;;;;30.38;91.21;101520.28;5002087;28;20101;-49
2022/10/28 10:28:20;;;;;;;16.90;5.30;;;;;;;30.46;91.85;101516.78;5015489;28;20031;-54
2022/10/28 10:30:56;;;;;;;19.73;5.38;;;;;;;29.55;96.25;101515.84;5004290;28;20034;-53
2022/10/28 10:33:27;;;;;;;13.77;5.18;;;;;;;29.06;99.64;101513.50;5002176;28;20030;-51
2022/10/28 10:36:14;;;;;;;13.35;4.75;;;;;;;29.75;97.17;101517.31;5001480;28;20047;-53
2022/10/28 10:38:49;;;;;;;22.05;4.93;;;;;;;29.80;96.23;101506.22;5017508;28;20042;-52
2022/10/28 10:41:34;;;;;;;19.35;4.68;;;;;;;30.59;90.77;101497.69;5003893;28;20026;-53
2022/10/28 10:43:59;;;;;;;13.93;4.68;;;;;;;30.20;91.34;101505.56;5007291;28;20054;-50
2022/10/28 10:46:26;;;;;;;;;;;;;;;30.28;91.46;101502.03;5012818;28;20102;-53
2022/10/28 10:49:13;;;;;;;19.08;4.88;;;;;;;30.23;92.28;101502.19;5002490;28;19918;-53
2022/10/28 10:51:50;;;;;;;16.05;5.20;;;;;;;30.52;90.71;101508.38;5016476;28;20045;-53
2022/10/28 10:54:16;;;;;;;23.17;4.95;;;;;;;30.71;89.08;101519.19;5006997;28;20058;-52
2022/10/28 10:56:41;;;;;;;;;;;;;;;30.29;89.78;101527.69;5008561;28;20030;-53
2022/10/28 10:59:29;;;;;;;18.90;4.28;;;;;;;30.74;88.55;101527.66;5006199;28;19893;-50
2022/10/28 11:01:58;;;;;;;;;;;;;;;30.73;86.56;101527.97;5003204;28;20058;-52
2022/10/28 11:04:26;;;;;;;13.38;3.70;;;;;;;29.88;91.18;101524.75;5006594;28;19930;-52
2022/10/28 11:06:56;;;;;;;24.17;4.65;;;;;;;29.66;93.66;101524.72;5008073;28;20031;-51
2022/10/28 11:09:35;;;;;;;16.48;4.38;;;;;;;30.04;92.46;101505.13;5010542;28;20053;-52
2022/10/28 11:12:12;;;;;;;22.90;4.90;;;;;;;29.50;94.64;101519.53;5012601;28;20106;-51
2022/10/28 11:14:37;;;;;;;15.82;4.30;;;;;;;29.77;93.23;101517.84;5001139;28;20037;-53
2022/10/28 11:17:20;;;;;;;;;;;;;;;29.43;94.62;101514.44;5011217;28;20034;-51
2022/10/28 11:19:46;;;;;;;17.83;4.60;;;;;;;29.80;92.99;101495.19;5004074;28;19984;-52
2022/10/28 11:22:14;;;;;;;;;;;;;;;29.75;93.79;101498.03;5013575;28;20039;-51
2022/10/28 11:24:43;;;;;;;12.00;3.90;;;;;;;29.14;95.90;101503.72;5004612;28;19918;-51